createdAt,value
2023-04-15T00:01:10.216Z,84.01
2023-04-15T00:03:37.555Z,82.12
2023-04-15T00:06:05.035Z,84.52
2023-04-15T00:08:32.160Z,84.84
2023-04-15T00:11:02.971Z,84.45
2023-04-15T00:13:30.341Z,84.38
2023-04-15T00:15:57.448Z,84.35
2023-04-15T00:18:25.415Z,84.49
2023-04-15T00:20:52.594Z,84.72
2023-04-15T00:23:19.750Z,84.99
2023-04-15T00:25:47.505Z,85.14
2023-04-15T00:28:14.586Z,85.49
2023-04-15T00:30:42.285Z,85.34
2023-04-15T00:33:09.874Z,85.16
2023-04-15T00:35:37.450Z,84.23
2023-04-15T00:38:07.148Z,84.20
2023-04-15T00:40:35.262Z,85.62
2023-04-15T00:43:02.765Z,85.38
2023-04-15T00:45:30.530Z,86.03
2023-04-15T00:47:58.531Z,85.35
2023-04-15T00:50:25.891Z,84.68
2023-04-15T00:52:52.968Z,85.77
2023-04-15T00:55:20.288Z,85.67
2023-04-15T00:57:47.509Z,85.54
2023-04-15T01:00:14.937Z,85.46
2023-04-15T01:02:42.222Z,85.66
2023-04-15T01:05:09.693Z,85.14
2023-04-15T01:07:36.802Z,85.24
2023-04-15T01:10:05.627Z,85.74
2023-04-15T01:12:34.245Z,85.36
2023-04-15T01:15:02.194Z,86.16
2023-04-15T01:17:30.058Z,85.75
2023-04-15T01:19:57.978Z,84.61
2023-04-15T01:22:27.719Z,85.74
2023-04-15T01:25:20.077Z,84.53
2023-04-15T01:27:47.602Z,85.88
2023-04-15T01:30:15.577Z,85.27
2023-04-15T01:32:42.989Z,83.75
2023-04-15T01:35:10.582Z,83.52
2023-04-15T01:37:37.945Z,85.24
2023-04-15T01:40:06.161Z,85.13
2023-04-15T01:42:33.682Z,85.75
2023-04-15T01:45:00.830Z,83.71
2023-04-15T01:47:27.948Z,85.02
2023-04-15T01:49:55.067Z,84.72
2023-04-15T01:52:22.257Z,85.51
2023-04-15T01:54:49.346Z,85.73
2023-04-15T01:57:16.553Z,86.11
2023-04-15T01:59:43.781Z,84.70
2023-04-15T02:02:13.202Z,85.39
2023-04-15T02:04:40.278Z,85.98
2023-04-15T02:07:07.309Z,84.10
2023-04-15T02:09:34.343Z,84.64
2023-04-15T02:12:01.815Z,84.66
2023-04-15T02:14:28.996Z,83.55
2023-04-15T02:16:56.476Z,85.88
2023-04-15T02:19:23.624Z,85.93
2023-04-15T02:21:50.798Z,85.63
2023-04-15T02:24:17.943Z,86.12
2023-04-15T02:26:45.033Z,85.16
2023-04-15T02:29:12.257Z,85.28
2023-04-15T02:31:40.631Z,86.08
2023-04-15T02:34:08.220Z,86.51
2023-04-15T02:36:35.320Z,85.06
2023-04-15T02:39:04.251Z,83.96
2023-04-15T02:41:31.505Z,84.05
2023-04-15T02:43:58.596Z,85.88
2023-04-15T02:46:25.907Z,84.30
2023-04-15T02:48:53.806Z,86.49
2023-04-15T02:51:22.782Z,84.27
2023-04-15T02:53:50.895Z,84.43
2023-04-15T02:56:19.423Z,85.39
2023-04-15T02:58:46.757Z,86.12
2023-04-15T03:01:13.977Z,84.80
2023-04-15T03:03:41.284Z,86.68
2023-04-15T03:06:09.045Z,85.13
2023-04-15T03:08:36.410Z,85.74
2023-04-15T03:11:04.541Z,85.74
2023-04-15T03:13:31.673Z,83.40
2023-04-15T03:15:58.842Z,84.14
2023-04-15T03:18:26.293Z,84.39
2023-04-15T03:20:53.415Z,85.33
2023-04-15T03:23:20.782Z,85.29
2023-04-15T03:25:47.843Z,85.77
2023-04-15T03:28:17.303Z,85.38
2023-04-15T03:30:44.383Z,84.76
2023-04-15T03:33:11.458Z,83.91
2023-04-15T03:35:38.879Z,83.85
2023-04-15T03:38:06.440Z,84.65
2023-04-15T03:40:33.808Z,85.21
2023-04-15T03:43:03.380Z,85.09
2023-04-15T03:45:31.334Z,85.35
2023-04-15T03:48:07.370Z,86.22
2023-04-15T03:50:42.984Z,84.65
2023-04-15T03:53:10.059Z,84.82
2023-04-15T03:55:37.101Z,84.17
2023-04-15T03:58:04.245Z,84.65
2023-04-15T04:00:31.630Z,84.54
2023-04-15T04:02:58.875Z,84.61
2023-04-15T04:05:26.248Z,84.97
2023-04-15T04:07:53.295Z,84.99
2023-04-15T04:10:20.758Z,85.28
2023-04-15T04:12:47.821Z,85.28
2023-04-15T04:15:14.925Z,84.60
2023-04-15T04:17:42.289Z,84.86
2023-04-15T04:20:09.983Z,85.42
2023-04-15T04:22:41.313Z,86.18
2023-04-15T04:25:10.309Z,86.29
2023-04-15T04:27:38.147Z,86.01
2023-04-15T04:30:06.852Z,84.34
2023-04-15T04:32:34.031Z,85.27
2023-04-15T04:35:01.516Z,85.49
2023-04-15T04:37:28.592Z,84.29
2023-04-15T04:39:56.100Z,85.36
2023-04-15T04:42:26.307Z,86.25
2023-04-15T04:44:53.567Z,86.00
2023-04-15T04:47:20.736Z,85.93
2023-04-15T04:49:47.913Z,85.92
2023-04-15T04:52:17.396Z,85.96
2023-04-15T04:54:44.533Z,86.47
2023-04-15T04:57:13.480Z,85.49
2023-04-15T04:59:41.559Z,85.73
2023-04-15T05:02:10.999Z,86.78
2023-04-15T05:04:38.127Z,86.01
2023-04-15T05:07:05.253Z,86.60
2023-04-15T05:09:32.996Z,86.37
2023-04-15T05:12:00.177Z,86.65
2023-04-15T05:14:27.260Z,86.45
2023-04-15T05:16:54.457Z,85.72
2023-04-15T05:19:21.599Z,86.21
2023-04-15T05:21:48.663Z,85.67
2023-04-15T05:24:15.700Z,85.29
2023-04-15T05:26:42.953Z,85.59
2023-04-15T05:29:10.184Z,85.72
2023-04-15T05:31:40.794Z,85.55
2023-04-15T05:34:08.162Z,85.42
2023-04-15T05:36:35.554Z,85.84
2023-04-15T05:39:02.913Z,85.85
2023-04-15T05:41:30.696Z,85.65
2023-04-15T05:43:57.818Z,85.71
2023-04-15T05:46:24.934Z,85.39
2023-04-15T05:48:52.199Z,83.96
2023-04-15T05:51:19.787Z,85.95
2023-04-15T05:53:46.955Z,85.31
2023-04-15T05:56:14.112Z,85.85
2023-04-15T05:58:41.444Z,85.56
2023-04-15T06:01:08.651Z,84.83
2023-04-15T06:03:35.852Z,84.64
2023-04-15T06:06:03.644Z,83.37
2023-04-15T06:08:31.134Z,84.68
2023-04-15T06:10:59.519Z,84.24
2023-04-15T06:13:27.110Z,84.50
2023-04-15T06:15:54.507Z,84.63
2023-04-15T06:18:22.189Z,84.80
2023-04-15T06:20:49.313Z,83.85
2023-04-15T06:23:16.389Z,83.31
2023-04-15T06:25:43.585Z,84.65
2023-04-15T06:28:10.659Z,83.10
2023-04-15T06:30:38.507Z,83.42
2023-04-15T06:33:06.242Z,84.00
2023-04-15T06:35:33.532Z,83.14
2023-04-15T06:38:00.687Z,83.48
2023-04-15T06:40:28.191Z,82.81
2023-04-15T06:42:55.995Z,81.60
2023-04-15T06:45:23.262Z,82.31
2023-04-15T06:47:50.454Z,82.96
2023-04-15T06:50:17.811Z,82.37
2023-04-15T06:52:44.918Z,81.29
2023-04-15T06:55:12.368Z,82.95
2023-04-15T06:57:39.453Z,83.02
2023-04-15T07:00:12.022Z,83.23
2023-04-15T07:02:39.514Z,81.82
2023-04-15T07:05:07.658Z,82.26
2023-04-15T07:07:35.031Z,81.92
2023-04-15T07:10:03.378Z,83.32
2023-04-15T07:12:30.612Z,83.03
2023-04-15T07:14:58.130Z,84.35
2023-04-15T07:17:25.267Z,83.92
2023-04-15T07:19:52.372Z,83.45
2023-04-15T07:22:20.003Z,83.03
2023-04-15T07:24:47.310Z,82.93
2023-04-15T07:27:14.615Z,83.09
2023-04-15T07:29:42.158Z,82.95
2023-04-15T07:32:10.807Z,83.07
2023-04-15T07:34:39.460Z,82.90
2023-04-15T07:37:06.593Z,84.07
2023-04-15T07:39:33.744Z,82.89
2023-04-15T07:42:01.990Z,82.73
2023-04-15T07:44:29.186Z,82.64
2023-04-15T07:46:57.369Z,83.58
2023-04-15T07:49:28.860Z,82.51
2023-04-15T07:51:57.630Z,82.76
2023-04-15T07:54:27.617Z,83.84
2023-04-15T07:56:55.089Z,83.12
2023-04-15T07:59:25.068Z,82.10
2023-04-15T08:01:53.679Z,82.87
2023-04-15T08:04:20.923Z,82.53
2023-04-15T08:06:50.191Z,82.45
2023-04-15T08:09:17.601Z,82.61
2023-04-15T08:11:46.130Z,82.48
2023-04-15T08:14:13.290Z,83.29
2023-04-15T08:16:40.592Z,83.20
2023-04-15T08:19:12.332Z,81.71
2023-04-15T08:21:40.823Z,82.53
2023-04-15T08:24:08.041Z,81.50
2023-04-15T08:26:35.568Z,81.89
2023-04-15T08:29:02.957Z,80.76
2023-04-15T08:31:30.703Z,80.41
2023-04-15T08:33:59.345Z,80.27
2023-04-15T08:36:37.796Z,82.02
2023-04-15T08:39:06.966Z,81.12
2023-04-15T08:42:03.929Z,81.40
2023-04-15T08:44:35.696Z,81.34
2023-04-15T08:47:06.425Z,81.51
2023-04-15T08:49:35.601Z,82.27
2023-04-15T08:52:04.346Z,82.24
2023-04-15T08:54:33.728Z,81.53
2023-04-15T08:57:02.290Z,80.99
2023-04-15T08:59:31.756Z,80.32
2023-04-15T09:01:59.116Z,80.92
2023-04-15T09:04:26.346Z,81.08
2023-04-15T09:06:53.461Z,79.51
2023-04-15T09:09:20.616Z,79.59
2023-04-15T09:11:49.901Z,80.79
2023-04-15T09:14:17.405Z,80.67
2023-04-15T09:17:11.993Z,79.73
2023-04-15T09:19:39.397Z,81.31
2023-04-15T09:22:07.029Z,79.56
2023-04-15T09:24:42.222Z,80.99
2023-04-15T09:27:11.750Z,81.56
2023-04-15T09:29:41.362Z,79.95
2023-04-15T09:32:14.869Z,79.42
2023-04-15T09:34:42.755Z,79.63
2023-04-15T09:37:11.231Z,80.95
2023-04-15T09:39:51.116Z,80.04
2023-04-15T09:42:28.628Z,80.63
2023-04-15T09:44:55.973Z,81.10
2023-04-15T09:47:36.539Z,81.15
2023-04-15T09:50:04.156Z,80.30
2023-04-15T09:52:32.697Z,81.29
2023-04-15T09:55:00.826Z,79.85
2023-04-15T09:57:37.076Z,81.24
2023-04-15T10:00:11.238Z,81.61
2023-04-15T10:02:42.607Z,81.39
2023-04-15T10:05:17.585Z,81.99
2023-04-15T10:07:45.734Z,80.59
2023-04-15T10:10:14.766Z,80.21
2023-04-15T10:12:42.651Z,80.97
2023-04-15T10:15:20.918Z,81.54
2023-04-15T10:17:50.922Z,81.78
2023-04-15T10:20:19.420Z,82.02
2023-04-15T10:22:47.754Z,81.83
2023-04-15T10:25:18.363Z,80.93
2023-04-15T10:27:48.549Z,81.91
2023-04-15T10:30:16.275Z,80.96
2023-04-15T10:32:47.388Z,81.60
2023-04-15T10:35:15.557Z,81.18
2023-04-15T10:37:42.872Z,82.83
2023-04-15T10:40:28.470Z,81.43
2023-04-15T10:42:57.567Z,81.57
2023-04-15T10:45:33.512Z,82.43
2023-04-15T10:48:06.822Z,83.07
2023-04-15T10:50:34.324Z,81.41
2023-04-15T10:53:07.448Z,81.48
2023-04-15T10:55:35.326Z,81.70
2023-04-15T10:58:03.386Z,83.09
2023-04-15T11:00:33.091Z,83.33
2023-04-15T11:03:10.704Z,83.14
2023-04-15T11:05:51.782Z,82.15
2023-04-15T11:08:20.444Z,81.17
2023-04-15T11:10:47.286Z,82.74
2023-04-15T11:13:26.642Z,82.77
2023-04-15T11:15:58.413Z,81.68
2023-04-15T11:18:30.701Z,82.45
2023-04-15T11:21:07.481Z,80.98
2023-04-15T11:23:51.744Z,83.09
2023-04-15T11:26:19.013Z,81.88
2023-04-15T11:28:47.115Z,83.57
2023-04-15T11:31:19.918Z,81.80
2023-04-15T11:34:02.182Z,81.50
2023-04-15T11:36:32.214Z,83.04
2023-04-15T11:39:00.437Z,82.59
2023-04-15T11:41:29.153Z,81.35
2023-04-15T11:43:56.334Z,81.75
2023-04-15T11:46:32.975Z,84.00
2023-04-15T11:49:00.265Z,82.15
2023-04-15T11:51:32.072Z,83.14
2023-04-15T11:53:59.235Z,81.76
2023-04-15T11:56:32.067Z,83.45
2023-04-15T11:59:00.013Z,83.80
2023-04-15T12:01:44.063Z,83.44
2023-04-15T12:04:20.127Z,84.07
2023-04-15T12:06:49.486Z,83.20
2023-04-15T12:09:20.312Z,84.71
2023-04-15T12:11:55.307Z,84.04
2023-04-15T12:14:28.786Z,82.40
2023-04-15T12:17:07.012Z,83.31
2023-04-15T12:19:43.034Z,83.08
2023-04-15T12:22:13.312Z,83.46
2023-04-15T12:24:44.011Z,82.25
2023-04-15T12:27:16.692Z,82.77
2023-04-15T12:29:44.302Z,83.77
2023-04-15T12:32:20.888Z,84.55
2023-04-15T12:34:58.183Z,82.14
2023-04-15T12:37:26.162Z,84.17
2023-04-15T12:39:54.292Z,83.67
2023-04-15T12:42:22.496Z,81.47
2023-04-15T12:44:49.556Z,82.13
2023-04-15T12:47:16.805Z,81.57
2023-04-15T12:49:44.258Z,80.58
2023-04-15T12:52:11.492Z,82.17
2023-04-15T12:54:39.729Z,83.10
2023-04-15T12:57:07.597Z,84.03
2023-04-15T12:59:36.382Z,82.33
2023-04-15T13:02:04.629Z,82.63
2023-04-15T13:04:32.172Z,82.88
2023-04-15T13:06:59.336Z,82.48
2023-04-15T13:09:27.071Z,83.28
2023-04-15T13:11:54.386Z,82.15
2023-04-15T13:14:21.845Z,81.78
2023-04-15T13:16:48.898Z,82.79
2023-04-15T13:19:16.313Z,83.15
2023-04-15T13:21:43.384Z,79.39
2023-04-15T13:24:10.571Z,83.46
2023-04-15T13:26:37.842Z,82.97
2023-04-15T13:29:05.514Z,81.92
2023-04-15T13:31:32.748Z,82.34
2023-04-15T13:34:00.009Z,82.64
2023-04-15T13:36:27.335Z,82.81
2023-04-15T13:38:54.703Z,83.19
2023-04-15T13:41:21.939Z,83.37
2023-04-15T13:43:50.371Z,81.23
2023-04-15T13:50:45.335Z,83.12
2023-04-15T13:53:13.873Z,83.85
2023-04-15T13:55:43.242Z,83.47
2023-04-15T13:58:11.415Z,81.86
2023-04-15T14:00:38.697Z,82.29
2023-04-15T14:03:05.975Z,82.46
2023-04-15T14:05:33.329Z,83.16
2023-04-15T14:08:00.775Z,82.44
2023-04-15T14:10:27.820Z,83.10
2023-04-15T14:12:54.863Z,83.20
2023-04-15T14:15:22.166Z,81.24
2023-04-15T14:17:49.377Z,82.38
2023-04-15T14:20:17.373Z,81.86
2023-04-15T14:22:44.764Z,80.99
2023-04-15T14:25:20.026Z,81.85
2023-04-15T14:27:54.235Z,83.73
2023-04-15T14:30:21.310Z,82.34
2023-04-15T14:32:48.519Z,83.80
2023-04-15T14:35:15.748Z,84.40
2023-04-15T14:37:42.850Z,83.87
2023-04-15T14:40:10.791Z,82.77
2023-04-15T14:42:37.888Z,83.01
2023-04-15T14:45:05.794Z,82.89
2023-04-15T14:47:33.027Z,82.52
2023-04-15T14:50:00.588Z,82.22
2023-04-15T14:52:27.623Z,82.86
2023-04-15T14:54:54.643Z,83.41
2023-04-15T14:57:21.837Z,83.06
2023-04-15T14:59:48.877Z,84.32
2023-04-15T15:02:31.671Z,83.93
2023-04-15T15:05:04.348Z,83.46
2023-04-15T15:07:31.615Z,85.14
2023-04-15T15:09:58.687Z,83.23
2023-04-15T15:12:25.804Z,83.77
2023-04-15T15:14:55.234Z,84.26
2023-04-15T15:17:22.579Z,85.50
2023-04-15T15:19:49.710Z,85.07
2023-04-15T15:22:18.463Z,85.33
2023-04-15T15:24:46.641Z,85.46
2023-04-15T15:27:13.754Z,84.29
2023-04-15T15:29:40.925Z,84.98
2023-04-15T15:32:08.065Z,83.98
2023-04-15T15:34:35.093Z,84.19
2023-04-15T15:37:02.210Z,83.15
2023-04-15T15:39:29.593Z,82.98
2023-04-15T15:41:56.671Z,84.58
2023-04-15T15:44:23.708Z,83.26
2023-04-15T15:46:51.457Z,83.29
2023-04-15T15:49:19.689Z,83.08
2023-04-15T15:51:46.854Z,83.25
2023-04-15T15:54:13.953Z,83.94
2023-04-15T15:56:42.098Z,83.63
2023-04-15T15:59:09.264Z,83.10
2023-04-15T16:01:36.288Z,84.33
2023-04-15T16:04:03.583Z,84.27
2023-04-15T16:06:32.765Z,84.12
2023-04-15T16:09:01.936Z,81.96
2023-04-15T16:11:29.773Z,83.11
2023-04-15T16:13:56.947Z,82.32
2023-04-15T16:16:24.255Z,82.80
2023-04-15T16:18:51.472Z,84.40
2023-04-15T16:21:20.160Z,84.16
2023-04-15T16:23:47.546Z,84.49
2023-04-15T16:26:14.833Z,83.66
2023-04-15T16:28:41.963Z,85.06
2023-04-15T16:31:11.087Z,84.29
2023-04-15T16:33:39.311Z,83.50
2023-04-15T16:36:06.801Z,83.88
2023-04-15T16:38:33.907Z,84.75
2023-04-15T16:41:02.388Z,85.32
2023-04-15T16:43:29.844Z,84.76
2023-04-15T16:45:57.285Z,84.25
2023-04-15T16:48:24.439Z,84.08
2023-04-15T16:50:51.508Z,84.35
2023-04-15T16:53:18.655Z,84.33
2023-04-15T16:55:46.824Z,84.46
2023-04-15T16:58:13.909Z,85.18
2023-04-15T17:00:40.946Z,83.49
2023-04-15T17:03:08.274Z,83.89
2023-04-15T17:05:35.465Z,84.35
2023-04-15T17:08:05.273Z,82.76
2023-04-15T17:10:32.400Z,83.61
2023-04-15T17:12:59.977Z,82.72
2023-04-15T17:15:27.538Z,83.10
2023-04-15T17:17:54.885Z,82.33
2023-04-15T17:20:22.161Z,83.75
2023-04-15T17:22:49.667Z,85.20
2023-04-15T17:25:16.929Z,83.56
2023-04-15T17:27:44.136Z,84.96
2023-04-15T17:30:11.775Z,84.53
2023-04-15T17:32:39.979Z,84.43
2023-04-15T17:35:08.395Z,85.81
2023-04-15T17:37:35.764Z,83.49
2023-04-15T17:40:04.355Z,83.41
2023-04-15T17:42:32.521Z,85.23
2023-04-15T17:44:59.597Z,84.79
2023-04-15T17:47:27.458Z,85.68
2023-04-15T17:49:54.506Z,83.80
2023-04-15T17:52:24.360Z,85.27
2023-04-15T17:54:51.448Z,84.63
2023-04-15T17:57:18.510Z,84.47
2023-04-15T17:59:47.655Z,83.62
2023-04-15T18:02:15.674Z,83.61
2023-04-15T18:04:44.506Z,83.97
2023-04-15T18:07:11.834Z,84.84
2023-04-15T18:09:39.291Z,84.33
2023-04-15T18:12:07.571Z,83.74
2023-04-15T18:14:36.104Z,84.57
2023-04-15T18:17:03.554Z,85.58
2023-04-15T18:19:31.778Z,85.95
2023-04-15T18:22:00.229Z,83.54
2023-04-15T18:24:28.239Z,84.94
2023-04-15T18:26:56.339Z,86.64
2023-04-15T18:29:23.392Z,86.23
2023-04-15T18:31:50.622Z,84.79
2023-04-15T18:34:18.014Z,85.13
2023-04-15T18:36:45.727Z,86.21
2023-04-15T18:39:12.764Z,85.16
2023-04-15T18:41:39.888Z,84.77
2023-04-15T18:44:06.958Z,85.35
2023-04-15T18:46:34.456Z,86.03
2023-04-15T18:49:01.917Z,85.38
2023-04-15T18:51:29.262Z,86.29
2023-04-15T18:53:59.681Z,86.48
2023-04-15T18:56:26.829Z,85.38
2023-04-15T18:59:11.584Z,84.17
2023-04-15T19:01:41.422Z,82.96
2023-04-15T19:04:10.077Z,85.95
2023-04-15T19:06:37.988Z,84.54
2023-04-15T19:09:05.450Z,85.08
2023-04-15T19:11:32.759Z,86.06
2023-04-15T19:14:00.488Z,84.83
2023-04-15T19:16:27.640Z,85.74
2023-04-15T19:18:54.800Z,85.15
2023-04-15T19:21:21.924Z,85.97
2023-04-15T19:23:49.993Z,85.02
2023-04-15T19:26:17.025Z,84.69
2023-04-15T19:28:44.116Z,84.56
2023-04-15T19:31:11.307Z,84.63
2023-04-15T19:33:38.928Z,86.02
2023-04-15T19:36:07.685Z,84.78
2023-04-15T19:38:36.025Z,85.55
2023-04-15T19:41:03.447Z,85.97
2023-04-15T19:43:32.739Z,84.63
2023-04-15T19:46:00.131Z,86.98
2023-04-15T19:48:27.270Z,85.48
2023-04-15T19:50:54.449Z,84.82
2023-04-15T19:53:21.677Z,85.91
2023-04-15T19:55:48.839Z,86.81
2023-04-15T19:58:16.115Z,86.15
2023-04-15T20:00:43.326Z,85.51
2023-04-15T20:03:11.235Z,85.38
2023-04-15T20:05:38.460Z,86.60
2023-04-15T20:08:05.775Z,86.42
2023-04-15T20:10:32.996Z,86.17
2023-04-15T20:13:00.040Z,86.04
2023-04-15T20:15:27.213Z,85.39
2023-04-15T20:17:54.386Z,85.32
2023-04-15T20:20:22.449Z,85.09
2023-04-15T20:22:49.573Z,83.38
2023-04-15T20:25:16.668Z,84.20
2023-04-15T20:27:44.344Z,85.51
2023-04-15T20:30:11.776Z,85.45
2023-04-15T20:32:38.975Z,85.31
2023-04-15T20:35:07.203Z,86.61
2023-04-15T20:37:37.821Z,84.99
2023-04-15T20:40:05.701Z,85.81
2023-04-15T20:42:37.063Z,85.50
2023-04-15T20:45:04.732Z,84.57
2023-04-15T20:47:31.819Z,85.25
2023-04-15T20:49:58.903Z,85.00
2023-04-15T20:52:28.171Z,84.25
2023-04-15T20:54:55.570Z,83.85
2023-04-15T20:57:24.560Z,84.05
2023-04-15T20:59:51.800Z,85.89
2023-04-15T21:02:18.982Z,85.30
2023-04-15T21:04:47.092Z,84.66
2023-04-15T21:07:14.299Z,84.51
2023-04-15T21:09:44.243Z,85.06
2023-04-15T21:12:11.609Z,85.32
2023-04-15T21:14:39.888Z,85.44
2023-04-15T21:17:10.071Z,84.46
2023-04-15T21:19:38.410Z,84.60
2023-04-15T21:22:05.657Z,86.12
2023-04-15T21:24:32.719Z,85.19
2023-04-15T21:26:59.821Z,85.42
2023-04-15T21:29:26.957Z,85.42
2023-04-15T21:31:56.362Z,86.28
2023-04-15T21:34:23.560Z,84.75
2023-04-15T21:36:50.693Z,84.61
2023-04-15T21:39:20.751Z,84.87
2023-04-15T21:41:47.830Z,86.29
2023-04-15T21:44:20.123Z,83.38
2023-04-15T21:46:47.206Z,85.39
2023-04-15T21:49:14.525Z,85.43
2023-04-15T21:51:41.550Z,86.06
2023-04-15T21:54:08.696Z,85.24
2023-04-15T21:56:36.742Z,85.51
2023-04-15T21:59:03.983Z,84.92
2023-04-15T22:01:31.182Z,86.27
2023-04-15T22:04:00.392Z,84.53
2023-04-15T22:06:27.653Z,84.35
2023-04-15T22:08:57.344Z,83.94
2023-04-15T22:11:29.575Z,83.73
2023-04-15T22:13:58.126Z,85.13
2023-04-15T22:16:28.424Z,85.24
2023-04-15T22:18:55.912Z,83.37
2023-04-15T22:21:23.775Z,83.94
2023-04-15T22:23:51.971Z,84.00
2023-04-15T22:26:19.122Z,82.39
2023-04-15T22:28:46.180Z,81.52
2023-04-15T22:31:14.652Z,83.36
2023-04-15T22:33:41.741Z,84.86
2023-04-15T22:36:08.885Z,83.15
2023-04-15T22:38:36.421Z,83.75
2023-04-15T22:41:03.514Z,82.74
2023-04-15T22:43:30.702Z,83.34
2023-04-15T22:45:57.848Z,84.00
2023-04-15T22:48:24.960Z,83.96
2023-04-15T22:50:52.132Z,83.58
2023-04-15T22:53:19.967Z,83.58
2023-04-15T22:55:48.393Z,82.78
2023-04-15T22:58:18.215Z,81.99
2023-04-15T23:00:45.749Z,81.59
2023-04-15T23:03:12.941Z,84.46
2023-04-15T23:05:41.096Z,83.79
2023-04-15T23:08:08.631Z,83.80
2023-04-15T23:10:35.764Z,83.09
2023-04-15T23:13:04.814Z,83.63
2023-04-15T23:15:31.866Z,83.29
2023-04-15T23:18:00.507Z,82.46
2023-04-15T23:20:27.714Z,81.91
2023-04-15T23:22:54.777Z,82.24
2023-04-15T23:25:22.643Z,82.07
2023-04-15T23:27:49.813Z,82.50
2023-04-15T23:30:16.945Z,83.96
2023-04-15T23:32:44.209Z,83.13
2023-04-15T23:35:11.553Z,83.03
2023-04-15T23:37:38.583Z,83.81
2023-04-15T23:40:09.760Z,83.71
2023-04-15T23:42:36.843Z,84.41
2023-04-15T23:45:04.153Z,82.00
2023-04-15T23:47:31.239Z,84.83
2023-04-15T23:49:58.314Z,83.08
2023-04-15T23:52:25.598Z,83.47
2023-04-15T23:54:52.719Z,83.84
2023-04-15T23:57:19.811Z,84.75
2023-04-15T23:59:46.902Z,84.57
